This is the latest recevied weather packets stored in our database for station/object KK6LZB. If no packets are shown the sender has not sent any weather packets the latest 10 day(s).
| Time | Temp. | Humidity | Pressure | Rain* | Wind** | Luminosity | Snow |
|---|---|---|---|---|---|---|---|
| 1778197596 | 20.56° C | 78% | 1016.4 hPa | 0 mm | - | 312 W/m² | - |
| 1778197292 | 20.56° C | 77% | 1016.5 hPa | 0 mm | - | 325 W/m² | - |
| 1778196989 | 20.56° C | 77% | 1016.4 hPa | 0 mm | - | 339 W/m² | - |
| 1778196688 | 20.56° C | 76% | 1016.2 hPa | 0 mm | - | 354 W/m² | - |
| 1778196384 | 20.56° C | 76% | 1016.5 hPa | 0 mm | - | 363 W/m² | - |
| 1778196081 | 21.11° C | 75% | 1016.5 hPa | 0 mm | - | 382 W/m² | - |
| 1778195777 | 21.11° C | 76% | 1016.5 hPa | 0 mm | - | 395 W/m² | - |
| 1778195475 | 20.56° C | 75% | 1016.4 hPa | 0 mm | - | 411 W/m² | - |
| 1778195171 | 20.56° C | 77% | 1016.6 hPa | 0 mm | - | 425 W/m² | - |
| 1778194868 | 20.56° C | 77% | 1016.6 hPa | 0 mm | - | 438 W/m² | - |
| 1778194563 | 20° C | 78% | 1016.6 hPa | 0 mm | - | 454 W/m² | - |
| 1778194260 | 20.56° C | 76% | 1016.7 hPa | 0 mm | - | 465 W/m² | - |
| 1778193955 | 20.56° C | 79% | 1016.6 hPa | 0 mm | - | 479 W/m² | - |
| 1778193652 | 20° C | 77% | 1016.6 hPa | 0 mm | - | 490 W/m² | - |
| 1778193348 | 20.56° C | 78% | 1016.8 hPa | 0 mm | - | 504 W/m² | - |
| 1778193046 | 21.11° C | 76% | 1016.8 hPa | 0 mm | - | 518 W/m² | - |
| 1778192743 | 21.67° C | 74% | 1016.7 hPa | 0 mm | - | 528 W/m² | - |
| 1778192439 | 20.56° C | 77% | 1016.6 hPa | 0 mm | - | 540 W/m² | - |
| 1778192135 | 20.56° C | 77% | 1016.8 hPa | 0 mm | - | 552 W/m² | - |
| 1778191832 | 21.11° C | 75% | 1016.9 hPa | 0 mm | - | 561 W/m² | - |
| 1778191529 | 20.56° C | 75% | 1017 hPa | 0 mm | - | 574 W/m² | - |
| 1778191227 | 21.11° C | 74% | 1016.8 hPa | 0 mm | - | 586 W/m² | - |
| 1778190923 | 20.56° C | 76% | 1016.9 hPa | 0 mm | - | 595 W/m² | - |
| 1778190621 | 20.56° C | 75% | 1017 hPa | 0 mm | - | 605 W/m² | - |
| 1778190318 | 21.67° C | 73% | 1017.1 hPa | 0 mm | - | 613 W/m² | - |
* Rain latest hour (hover to see other rain measurements)
** Current wind speed in m/s (hover to see current wind gust speed)